sensor_id;sensor_type;location;lat;lon;timestamp;pressure;altitude;pressure_sealevel;temperature;humidity
64189;BME280;50493;50.970;10.082;2023-02-19T00:02:23;99374.13;;;7.96;77.46
64189;BME280;50493;50.970;10.082;2023-02-19T00:04:48;99367.19;;;7.95;75.45
64189;BME280;50493;50.970;10.082;2023-02-19T00:07:13;99359.22;;;8.07;77.49
64189;BME280;50493;50.970;10.082;2023-02-19T00:09:39;99356.16;;;8.44;75.53
64189;BME280;50493;50.970;10.082;2023-02-19T00:12:04;99352.19;;;8.79;73.59
64189;BME280;50493;50.970;10.082;2023-02-19T00:14:31;99347.34;;;8.55;76.48
64189;BME280;50493;50.970;10.082;2023-02-19T00:16:56;99350.50;;;8.75;74.07
64189;BME280;50493;50.970;10.082;2023-02-19T00:19:22;99337.56;;;8.71;73.77
64189;BME280;50493;50.970;10.082;2023-02-19T00:21:49;99330.88;;;9.10;74.86
64189;BME280;50493;50.970;10.082;2023-02-19T00:24:15;99327.91;;;8.77;72.41
64189;BME280;50493;50.970;10.082;2023-02-19T00:26:41;99324.25;;;8.88;74.85
64189;BME280;50493;50.970;10.082;2023-02-19T00:29:08;99311.94;;;9.01;72.79
64189;BME280;50493;50.970;10.082;2023-02-19T00:31:37;99311.00;;;8.44;74.96
64189;BME280;50493;50.970;10.082;2023-02-19T00:34:04;99307.44;;;8.50;74.41
64189;BME280;50493;50.970;10.082;2023-02-19T00:36:31;99304.03;;;8.44;74.21
64189;BME280;50493;50.970;10.082;2023-02-19T00:38:57;99310.91;;;8.52;74.74
64189;BME280;50493;50.970;10.082;2023-02-19T00:41:23;99299.66;;;8.48;75.27
64189;BME280;50493;50.970;10.082;2023-02-19T00:43:50;99302.78;;;8.73;73.70
64189;BME280;50493;50.970;10.082;2023-02-19T00:46:17;99310.63;;;8.70;71.82
64189;BME280;50493;50.970;10.082;2023-02-19T00:48:45;99321.50;;;9.00;72.59
64189;BME280;50493;50.970;10.082;2023-02-19T00:51:10;99328.81;;;8.75;71.77
64189;BME280;50493;50.970;10.082;2023-02-19T00:53:36;99321.38;;;9.06;72.81
64189;BME280;50493;50.970;10.082;2023-02-19T00:56:01;99295.06;;;9.22;71.49
64189;BME280;50493;50.970;10.082;2023-02-19T00:58:27;99291.16;;;8.93;71.48
64189;BME280;50493;50.970;10.082;2023-02-19T01:00:52;99293.22;;;8.72;73.43
64189;BME280;50493;50.970;10.082;2023-02-19T01:03:17;99282.53;;;8.88;73.70
64189;BME280;50493;50.970;10.082;2023-02-19T01:05:44;99295.50;;;8.95;72.52
64189;BME280;50493;50.970;10.082;2023-02-19T01:08:09;99285.94;;;8.93;71.41
64189;BME280;50493;50.970;10.082;2023-02-19T01:10:35;99279.75;;;8.44;72.33
64189;BME280;50493;50.970;10.082;2023-02-19T01:13:00;99268.44;;;9.01;70.95
64189;BME280;50493;50.970;10.082;2023-02-19T01:15:25;99272.38;;;8.72;72.26
64189;BME280;50493;50.970;10.082;2023-02-19T01:17:51;99275.78;;;8.77;69.91
64189;BME280;50493;50.970;10.082;2023-02-19T01:20:16;99273.66;;;9.01;71.13
64189;BME280;50493;50.970;10.082;2023-02-19T01:22:43;99284.22;;;8.92;71.07
64189;BME280;50493;50.970;10.082;2023-02-19T01:25:08;99266.31;;;8.72;73.43
64189;BME280;50493;50.970;10.082;2023-02-19T01:27:33;99264.00;;;8.53;73.51
64189;BME280;50493;50.970;10.082;2023-02-19T01:29:59;99263.41;;;8.89;70.75
64189;BME280;50493;50.970;10.082;2023-02-19T01:32:24;99266.03;;;8.31;74.50
64189;BME280;50493;50.970;10.082;2023-02-19T01:34:49;99260.66;;;8.43;73.94
64189;BME280;50493;50.970;10.082;2023-02-19T01:37:15;99251.91;;;8.48;73.08
64189;BME280;50493;50.970;10.082;2023-02-19T01:39:41;99251.50;;;8.15;75.97
64189;BME280;50493;50.970;10.082;2023-02-19T01:42:11;99252.88;;;7.76;76.81
64189;BME280;50493;50.970;10.082;2023-02-19T01:45:17;99256.69;;;8.18;76.27
64189;BME280;50493;50.970;10.082;2023-02-19T01:47:43;99251.13;;;7.78;75.27
64189;BME280;50493;50.970;10.082;2023-02-19T01:50:08;99243.03;;;8.02;75.87
64189;BME280;50493;50.970;10.082;2023-02-19T01:52:35;99240.16;;;8.19;77.11
64189;BME280;50493;50.970;10.082;2023-02-19T01:55:05;99238.78;;;7.96;74.91
64189;BME280;50493;50.970;10.082;2023-02-19T01:57:34;99224.19;;;7.83;75.75
64189;BME280;50493;50.970;10.082;2023-02-19T02:00:04;99230.44;;;7.66;75.83
64189;BME280;50493;50.970;10.082;2023-02-19T02:02:30;99226.75;;;7.86;76.17
64189;BME280;50493;50.970;10.082;2023-02-19T02:04:56;99221.50;;;7.87;77.16
64189;BME280;50493;50.970;10.082;2023-02-19T02:07:25;99211.13;;;7.86;77.28
64189;BME280;50493;50.970;10.082;2023-02-19T02:10:10;99209.63;;;7.69;75.35
64189;BME280;50493;50.970;10.082;2023-02-19T02:12:45;99218.41;;;8.23;76.23
64189;BME280;50493;50.970;10.082;2023-02-19T02:15:10;99207.47;;;7.99;74.92
64189;BME280;50493;50.970;10.082;2023-02-19T02:17:44;99213.75;;;7.84;74.74
64189;BME280;50493;50.970;10.082;2023-02-19T02:20:29;99205.84;;;7.92;76.53
64189;BME280;50493;50.970;10.082;2023-02-19T02:22:59;99208.47;;;7.89;75.37
64189;BME280;50493;50.970;10.082;2023-02-19T02:25:50;99203.00;;;7.40;76.70
64189;BME280;50493;50.970;10.082;2023-02-19T02:28:32;99196.06;;;8.08;77.58
64189;BME280;50493;50.970;10.082;2023-02-19T02:31:03;99196.97;;;8.05;76.42
64189;BME280;50493;50.970;10.082;2023-02-19T02:33:35;99200.63;;;7.93;76.07
64189;BME280;50493;50.970;10.082;2023-02-19T02:36:04;99191.63;;;8.15;78.02
64189;BME280;50493;50.970;10.082;2023-02-19T02:38:35;99193.66;;;7.94;75.30
64189;BME280;50493;50.970;10.082;2023-02-19T02:41:02;99184.97;;;7.95;77.17
64189;BME280;50493;50.970;10.082;2023-02-19T02:43:28;99188.75;;;7.72;76.77
64189;BME280;50493;50.970;10.082;2023-02-19T02:45:53;99181.81;;;7.71;77.86
64189;BME280;50493;50.970;10.082;2023-02-19T02:48:27;99190.38;;;7.79;77.19
64189;BME280;50493;50.970;10.082;2023-02-19T02:50:58;99182.06;;;8.17;76.55
64189;BME280;50493;50.970;10.082;2023-02-19T02:53:27;99177.06;;;8.03;78.59
64189;BME280;50493;50.970;10.082;2023-02-19T02:56:14;99176.91;;;8.12;75.74
64189;BME280;50493;50.970;10.082;2023-02-19T02:58:41;99181.44;;;7.99;77.01
64189;BME280;50493;50.970;10.082;2023-02-19T03:01:09;99177.38;;;7.81;76.83
64189;BME280;50493;50.970;10.082;2023-02-19T03:04:00;99175.06;;;7.58;75.33
64189;BME280;50493;50.970;10.082;2023-02-19T03:06:29;99189.91;;;7.48;77.29
64189;BME280;50493;50.970;10.082;2023-02-19T03:08:59;99178.41;;;7.69;78.45
64189;BME280;50493;50.970;10.082;2023-02-19T03:11:27;99179.41;;;7.57;76.94
64189;BME280;50493;50.970;10.082;2023-02-19T03:14:16;99178.53;;;6.77;79.81
64189;BME280;50493;50.970;10.082;2023-02-19T03:17:05;99189.72;;;6.84;79.37
64189;BME280;50493;50.970;10.082;2023-02-19T03:19:54;99188.75;;;6.96;80.46
64189;BME280;50493;50.970;10.082;2023-02-19T03:22:22;99171.53;;;7.62;79.49
64189;BME280;50493;50.970;10.082;2023-02-19T03:24:52;99176.16;;;7.40;76.77
64189;BME280;50493;50.970;10.082;2023-02-19T03:27:40;99170.34;;;7.15;78.04
64189;BME280;50493;50.970;10.082;2023-02-19T03:30:10;99169.31;;;7.31;77.24
64189;BME280;50493;50.970;10.082;2023-02-19T03:32:39;99164.94;;;7.35;79.08
64189;BME280;50493;50.970;10.082;2023-02-19T03:35:10;99171.22;;;7.14;77.91
64189;BME280;50493;50.970;10.082;2023-02-19T03:37:40;99161.50;;;7.31;76.75
64189;BME280;50493;50.970;10.082;2023-02-19T03:40:07;99169.13;;;7.48;78.96
64189;BME280;50493;50.970;10.082;2023-02-19T03:42:38;99162.97;;;7.54;76.36
64189;BME280;50493;50.970;10.082;2023-02-19T03:45:13;99155.78;;;7.74;75.91
64189;BME280;50493;50.970;10.082;2023-02-19T03:47:45;99159.31;;;7.70;76.81
64189;BME280;50493;50.970;10.082;2023-02-19T03:50:17;99162.31;;;7.33;77.11
64189;BME280;50493;50.970;10.082;2023-02-19T03:52:53;99157.34;;;7.85;75.12
64189;BME280;50493;50.970;10.082;2023-02-19T03:55:26;99158.94;;;7.95;76.25
64189;BME280;50493;50.970;10.082;2023-02-19T03:57:55;99154.94;;;8.30;75.54
64189;BME280;50493;50.970;10.082;2023-02-19T04:00:27;99155.75;;;8.34;74.71
64189;BME280;50493;50.970;10.082;2023-02-19T04:02:57;99156.47;;;8.43;73.44
64189;BME280;50493;50.970;10.082;2023-02-19T04:05:29;99176.44;;;7.84;73.60
64189;BME280;50493;50.970;10.082;2023-02-19T04:07:58;99177.69;;;8.19;75.02
64189;BME280;50493;50.970;10.082;2023-02-19T04:10:26;99179.38;;;7.59;75.34
64189;BME280;50493;50.970;10.082;2023-02-19T04:12:56;99176.06;;;8.11;75.60
64189;BME280;50493;50.970;10.082;2023-02-19T04:15:26;99176.84;;;8.17;72.32
64189;BME280;50493;50.970;10.082;2023-02-19T04:17:57;99182.63;;;7.76;75.18
64189;BME280;50493;50.970;10.082;2023-02-19T04:20:28;99172.91;;;8.45;72.41
64189;BME280;50493;50.970;10.082;2023-02-19T04:22:54;99165.22;;;8.39;72.70
64189;BME280;50493;50.970;10.082;2023-02-19T04:25:21;99171.13;;;7.93;72.92
64189;BME280;50493;50.970;10.082;2023-02-19T04:27:47;99166.16;;;8.34;74.38
64189;BME280;50493;50.970;10.082;2023-02-19T04:30:13;99170.66;;;8.24;73.73
64189;BME280;50493;50.970;10.082;2023-02-19T04:32:39;99165.66;;;8.11;74.76
64189;BME280;50493;50.970;10.082;2023-02-19T04:35:05;99167.34;;;8.14;75.19
64189;BME280;50493;50.970;10.082;2023-02-19T04:37:31;99153.91;;;8.40;75.06
64189;BME280;50493;50.970;10.082;2023-02-19T04:39:57;99155.69;;;7.81;74.87
64189;BME280;50493;50.970;10.082;2023-02-19T04:42:22;99151.44;;;8.31;74.24
64189;BME280;50493;50.970;10.082;2023-02-19T04:44:47;99154.91;;;8.33;73.83
64189;BME280;50493;50.970;10.082;2023-02-19T04:47:13;99171.09;;;7.96;73.15
64189;BME280;50493;50.970;10.082;2023-02-19T04:49:41;99171.28;;;7.81;77.16
64189;BME280;50493;50.970;10.082;2023-02-19T04:52:07;99169.38;;;7.95;76.60
64189;BME280;50493;50.970;10.082;2023-02-19T04:54:33;99168.84;;;8.29;75.36
64189;BME280;50493;50.970;10.082;2023-02-19T04:56:59;99174.91;;;7.72;77.53
64189;BME280;50493;50.970;10.082;2023-02-19T04:59:24;99180.81;;;7.08;77.90
64189;BME280;50493;50.970;10.082;2023-02-19T05:01:49;99191.59;;;7.52;78.06
64189;BME280;50493;50.970;10.082;2023-02-19T05:04:15;99188.63;;;7.08;79.22
64189;BME280;50493;50.970;10.082;2023-02-19T05:06:40;99187.22;;;7.56;77.17
64189;BME280;50493;50.970;10.082;2023-02-19T05:09:05;99192.72;;;7.28;76.47
64189;BME280;50493;50.970;10.082;2023-02-19T05:11:32;99203.75;;;6.66;79.01
64189;BME280;50493;50.970;10.082;2023-02-19T05:13:58;99212.50;;;6.50;81.15
64189;BME280;50493;50.970;10.082;2023-02-19T05:16:23;99235.13;;;6.37;81.55
64189;BME280;50493;50.970;10.082;2023-02-19T05:18:49;99242.09;;;6.29;82.61
64189;BME280;50493;50.970;10.082;2023-02-19T05:21:14;99242.06;;;6.33;82.59
64189;BME280;50493;50.970;10.082;2023-02-19T05:23:40;99244.78;;;6.12;83.23
64189;BME280;50493;50.970;10.082;2023-02-19T05:26:06;99259.53;;;6.03;83.60
64189;BME280;50493;50.970;10.082;2023-02-19T05:28:34;99239.63;;;6.07;83.73
64189;BME280;50493;50.970;10.082;2023-02-19T05:31:04;99236.28;;;5.83;84.24
64189;BME280;50493;50.970;10.082;2023-02-19T05:33:30;99242.28;;;5.96;83.97
64189;BME280;50493;50.970;10.082;2023-02-19T05:35:55;99241.44;;;5.92;84.43
64189;BME280;50493;50.970;10.082;2023-02-19T05:38:21;99250.09;;;5.90;84.01
64189;BME280;50493;50.970;10.082;2023-02-19T05:40:47;99275.19;;;5.91;84.22
64189;BME280;50493;50.970;10.082;2023-02-19T05:43:13;99264.75;;;6.00;83.19
64189;BME280;50493;50.970;10.082;2023-02-19T05:45:40;99265.50;;;6.22;82.72
64189;BME280;50493;50.970;10.082;2023-02-19T05:48:06;99259.25;;;6.50;81.83
64189;BME280;50493;50.970;10.082;2023-02-19T05:50:33;99263.50;;;6.61;80.95
64189;BME280;50493;50.970;10.082;2023-02-19T05:52:59;99266.03;;;6.72;79.79
64189;BME280;50493;50.970;10.082;2023-02-19T05:55:25;99269.03;;;7.27;79.22
64189;BME280;50493;50.970;10.082;2023-02-19T05:57:51;99269.22;;;7.02;79.17
64189;BME280;50493;50.970;10.082;2023-02-19T06:00:17;99271.28;;;6.63;80.70
64189;BME280;50493;50.970;10.082;2023-02-19T06:02:45;99273.06;;;6.58;79.92
64189;BME280;50493;50.970;10.082;2023-02-19T06:05:10;99287.06;;;6.31;81.71
64189;BME280;50493;50.970;10.082;2023-02-19T06:07:36;99288.88;;;6.21;82.62
64189;BME280;50493;50.970;10.082;2023-02-19T06:10:04;99297.44;;;6.37;81.63
64189;BME280;50493;50.970;10.082;2023-02-19T06:12:29;99288.78;;;6.39;81.14
64189;BME280;50493;50.970;10.082;2023-02-19T06:14:54;99299.00;;;6.64;79.90
64189;BME280;50493;50.970;10.082;2023-02-19T06:17:20;99305.97;;;6.56;80.23
64189;BME280;50493;50.970;10.082;2023-02-19T06:19:46;99303.31;;;6.65;80.80
64189;BME280;50493;50.970;10.082;2023-02-19T06:22:12;99311.13;;;6.65;79.86
64189;BME280;50493;50.970;10.082;2023-02-19T06:24:38;99305.94;;;6.62;79.77
64189;BME280;50493;50.970;10.082;2023-02-19T06:27:04;99314.38;;;6.89;78.22
64189;BME280;50493;50.970;10.082;2023-02-19T06:29:29;99322.38;;;6.64;79.25
64189;BME280;50493;50.970;10.082;2023-02-19T06:31:56;99323.25;;;6.61;79.87
64189;BME280;50493;50.970;10.082;2023-02-19T06:34:21;99332.59;;;6.86;78.34
64189;BME280;50493;50.970;10.082;2023-02-19T06:36:49;99332.84;;;6.50;80.13
64189;BME280;50493;50.970;10.082;2023-02-19T06:39:14;99332.94;;;6.33;80.46
64189;BME280;50493;50.970;10.082;2023-02-19T06:41:39;99339.91;;;6.23;80.61
64189;BME280;50493;50.970;10.082;2023-02-19T06:44:05;99338.19;;;6.19;81.74
64189;BME280;50493;50.970;10.082;2023-02-19T06:46:30;99340.88;;;6.05;82.44
64189;BME280;50493;50.970;10.082;2023-02-19T06:48:55;99349.53;;;5.98;82.96
64189;BME280;50493;50.970;10.082;2023-02-19T06:51:21;99347.72;;;6.16;81.54
64189;BME280;50493;50.970;10.082;2023-02-19T06:53:49;99351.25;;;5.99;82.77
64189;BME280;50493;50.970;10.082;2023-02-19T06:56:23;99345.97;;;6.27;81.52
64189;BME280;50493;50.970;10.082;2023-02-19T06:58:49;99355.56;;;5.96;83.28
64189;BME280;50493;50.970;10.082;2023-02-19T07:01:14;99369.44;;;5.93;83.37
64189;BME280;50493;50.970;10.082;2023-02-19T07:03:40;99372.91;;;5.90;83.27
64189;BME280;50493;50.970;10.082;2023-02-19T07:06:06;99371.22;;;5.75;84.14
64189;BME280;50493;50.970;10.082;2023-02-19T07:08:31;99378.09;;;5.93;83.33
64189;BME280;50493;50.970;10.082;2023-02-19T07:10:58;99384.16;;;5.85;83.38
64189;BME280;50493;50.970;10.082;2023-02-19T07:13:24;99381.56;;;5.86;83.69
64189;BME280;50493;50.970;10.082;2023-02-19T07:15:57;99378.94;;;5.97;82.58
64189;BME280;50493;50.970;10.082;2023-02-19T07:18:23;99386.75;;;5.91;82.50
64189;BME280;50493;50.970;10.082;2023-02-19T07:20:48;99386.75;;;5.82;83.37
64189;BME280;50493;50.970;10.082;2023-02-19T07:23:13;99382.44;;;5.81;84.09
64189;BME280;50493;50.970;10.082;2023-02-19T07:25:39;99391.97;;;5.72;84.14
64189;BME280;50493;50.970;10.082;2023-02-19T07:28:06;99395.44;;;5.76;83.92
64189;BME280;50493;50.970;10.082;2023-02-19T07:30:31;99395.41;;;5.79;83.79
64189;BME280;50493;50.970;10.082;2023-02-19T07:32:57;99417.03;;;5.83;84.24
64189;BME280;50493;50.970;10.082;2023-02-19T07:35:22;99419.63;;;5.83;83.47
64189;BME280;50493;50.970;10.082;2023-02-19T07:37:47;99417.88;;;5.91;83.09
64189;BME280;50493;50.970;10.082;2023-02-19T07:40:13;99421.28;;;6.12;82.22
64189;BME280;50493;50.970;10.082;2023-02-19T07:42:39;99423.78;;;6.41;81.04
64189;BME280;50493;50.970;10.082;2023-02-19T07:45:06;99423.81;;;6.36;80.88
64189;BME280;50493;50.970;10.082;2023-02-19T07:47:31;99442.03;;;6.21;81.48
64189;BME280;50493;50.970;10.082;2023-02-19T07:49:57;99434.00;;;6.76;79.32
64189;BME280;50493;50.970;10.082;2023-02-19T07:52:22;99439.13;;;6.92;79.77
64189;BME280;50493;50.970;10.082;2023-02-19T07:54:48;99433.63;;;7.38;77.79
64189;BME280;50493;50.970;10.082;2023-02-19T07:57:13;99443.44;;;6.90;78.21
64189;BME280;50493;50.970;10.082;2023-02-19T07:59:39;99456.53;;;6.71;79.36
64189;BME280;50493;50.970;10.082;2023-02-19T08:02:11;99461.75;;;6.68;79.46
64189;BME280;50493;50.970;10.082;2023-02-19T08:04:58;99472.22;;;6.53;79.95
64189;BME280;50493;50.970;10.082;2023-02-19T08:07:23;99468.53;;;6.97;79.26
64189;BME280;50493;50.970;10.082;2023-02-19T08:09:49;99479.00;;;6.85;80.50
64189;BME280;50493;50.970;10.082;2023-02-19T08:12:34;99484.34;;;6.49;80.39
64189;BME280;50493;50.970;10.082;2023-02-19T08:15:18;99493.81;;;6.64;79.90
64189;BME280;50493;50.970;10.082;2023-02-19T08:17:44;99492.13;;;6.57;80.57
64189;BME280;50493;50.970;10.082;2023-02-19T08:20:10;99494.41;;;7.22;77.18
64189;BME280;50493;50.970;10.082;2023-02-19T08:22:35;99503.22;;;6.96;78.49
64189;BME280;50493;50.970;10.082;2023-02-19T08:25:00;99511.78;;;7.14;77.57
64189;BME280;50493;50.970;10.082;2023-02-19T08:27:26;99513.69;;;6.71;79.40
64189;BME280;50493;50.970;10.082;2023-02-19T08:29:51;99525.69;;;6.97;77.98
64189;BME280;50493;50.970;10.082;2023-02-19T08:32:16;99528.19;;;7.22;77.29
64189;BME280;50493;50.970;10.082;2023-02-19T08:34:43;99542.13;;;7.10;77.71
64189;BME280;50493;50.970;10.082;2023-02-19T08:37:08;99540.25;;;7.44;76.42
64189;BME280;50493;50.970;10.082;2023-02-19T08:39:33;99541.25;;;7.06;77.47
64189;BME280;50493;50.970;10.082;2023-02-19T08:41:59;99541.03;;;7.56;75.79
64189;BME280;50493;50.970;10.082;2023-02-19T08:44:24;99540.97;;;7.65;75.29
64189;BME280;50493;50.970;10.082;2023-02-19T08:46:49;99543.47;;;7.73;75.34
64189;BME280;50493;50.970;10.082;2023-02-19T08:49:15;99550.50;;;7.61;75.05
64189;BME280;50493;50.970;10.082;2023-02-19T08:51:41;99555.06;;;7.15;77.26
64189;BME280;50493;50.970;10.082;2023-02-19T08:54:07;99542.94;;;7.17;77.20
64189;BME280;50493;50.970;10.082;2023-02-19T08:56:32;99545.38;;;7.52;76.16
64189;BME280;50493;50.970;10.082;2023-02-19T08:58:57;99543.31;;;7.93;73.92
64189;BME280;50493;50.970;10.082;2023-02-19T09:01:23;99544.63;;;7.30;76.55
64189;BME280;50493;50.970;10.082;2023-02-19T09:03:48;99546.34;;;7.28;76.97
64189;BME280;50493;50.970;10.082;2023-02-19T09:06:15;99546.31;;;7.34;76.85
64189;BME280;50493;50.970;10.082;2023-02-19T09:08:42;99546.88;;;7.86;74.59
64189;BME280;50493;50.970;10.082;2023-02-19T09:11:07;99549.81;;;7.35;76.69
64189;BME280;50493;50.970;10.082;2023-02-19T09:13:33;99561.09;;;7.37;76.81
64189;BME280;50493;50.970;10.082;2023-02-19T09:15:58;99564.19;;;7.90;75.34
64189;BME280;50493;50.970;10.082;2023-02-19T09:18:24;99567.81;;;7.66;74.71
64189;BME280;50493;50.970;10.082;2023-02-19T09:20:49;99565.50;;;7.13;77.95
64189;BME280;50493;50.970;10.082;2023-02-19T09:23:15;99563.66;;;7.44;77.11
64189;BME280;50493;50.970;10.082;2023-02-19T09:25:41;99565.28;;;7.61;75.29
64189;BME280;50493;50.970;10.082;2023-02-19T09:28:07;99576.75;;;7.18;77.75
64189;BME280;50493;50.970;10.082;2023-02-19T09:30:32;99578.59;;;6.87;79.27
64189;BME280;50493;50.970;10.082;2023-02-19T09:32:58;99584.63;;;6.98;78.12
64189;BME280;50493;50.970;10.082;2023-02-19T09:35:23;99589.03;;;6.74;80.30
64189;BME280;50493;50.970;10.082;2023-02-19T09:37:48;99589.00;;;6.87;79.10
64189;BME280;50493;50.970;10.082;2023-02-19T09:40:14;99593.13;;;7.29;78.01
64189;BME280;50493;50.970;10.082;2023-02-19T09:42:47;99587.78;;;7.67;75.96
64189;BME280;50493;50.970;10.082;2023-02-19T09:45:18;99590.91;;;8.10;74.04
64189;BME280;50493;50.970;10.082;2023-02-19T09:47:45;99580.88;;;7.58;76.43
64189;BME280;50493;50.970;10.082;2023-02-19T09:50:15;99582.34;;;7.99;74.61
64189;BME280;50493;50.970;10.082;2023-02-19T09:52:44;99593.75;;;7.81;75.96
64189;BME280;50493;50.970;10.082;2023-02-19T09:55:16;99599.88;;;7.72;76.51
64189;BME280;50493;50.970;10.082;2023-02-19T09:57:43;99602.97;;;8.24;74.32
64189;BME280;50493;50.970;10.082;2023-02-19T10:00:21;99605.25;;;7.44;77.29
64189;BME280;50493;50.970;10.082;2023-02-19T10:02:50;99608.75;;;7.34;78.13
64189;BME280;50493;50.970;10.082;2023-02-19T10:05:16;99616.53;;;7.29;77.84
64189;BME280;50493;50.970;10.082;2023-02-19T10:07:44;99619.19;;;7.25;78.25
64189;BME280;50493;50.970;10.082;2023-02-19T10:10:21;99618.13;;;7.65;76.77
64189;BME280;50493;50.970;10.082;2023-02-19T10:12:51;99618.31;;;7.24;78.86
64189;BME280;50493;50.970;10.082;2023-02-19T10:15:25;99629.59;;;7.19;78.93
64189;BME280;50493;50.970;10.082;2023-02-19T10:17:52;99625.22;;;7.32;78.62
64189;BME280;50493;50.970;10.082;2023-02-19T10:20:19;99636.41;;;7.57;77.61
64189;BME280;50493;50.970;10.082;2023-02-19T10:22:56;99640.00;;;7.23;79.45
64189;BME280;50493;50.970;10.082;2023-02-19T10:25:23;99661.63;;;7.41;79.28
64189;BME280;50493;50.970;10.082;2023-02-19T10:27:48;99662.53;;;7.23;79.12
64189;BME280;50493;50.970;10.082;2023-02-19T10:30:20;99679.88;;;7.11;77.30
64189;BME280;50493;50.970;10.082;2023-02-19T10:32:58;99695.19;;;7.89;77.75
64189;BME280;50493;50.970;10.082;2023-02-19T10:35:24;99694.31;;;7.93;76.54
64189;BME280;50493;50.970;10.082;2023-02-19T10:37:50;99703.88;;;7.91;80.04
64189;BME280;50493;50.970;10.082;2023-02-19T10:40:18;99709.06;;;7.88;80.31
64189;BME280;50493;50.970;10.082;2023-02-19T10:42:46;99708.34;;;7.58;83.24
64189;BME280;50493;50.970;10.082;2023-02-19T10:45:17;99721.34;;;7.64;84.26
64189;BME280;50493;50.970;10.082;2023-02-19T10:47:46;99723.94;;;7.67;82.41
64189;BME280;50493;50.970;10.082;2023-02-19T10:50:18;99725.66;;;7.71;81.38
64189;BME280;50493;50.970;10.082;2023-02-19T10:52:50;99731.84;;;7.36;82.76
64189;BME280;50493;50.970;10.082;2023-02-19T10:55:25;99736.19;;;7.39;82.86
64189;BME280;50493;50.970;10.082;2023-02-19T10:57:50;99744.84;;;7.49;81.56
64189;BME280;50493;50.970;10.082;2023-02-19T11:00:20;99754.38;;;7.53;82.01
64189;BME280;50493;50.970;10.082;2023-02-19T11:02:48;99756.13;;;7.44;85.01
64189;BME280;50493;50.970;10.082;2023-02-19T11:05:16;99759.56;;;7.40;83.53
64189;BME280;50493;50.970;10.082;2023-02-19T11:07:47;99763.06;;;7.35;81.93
64189;BME280;50493;50.970;10.082;2023-02-19T11:10:23;99764.69;;;7.68;83.67
64189;BME280;50493;50.970;10.082;2023-02-19T11:12:50;99775.03;;;7.84;82.21
64189;BME280;50493;50.970;10.082;2023-02-19T11:15:20;99775.81;;;8.06;85.19
64189;BME280;50493;50.970;10.082;2023-02-19T11:17:56;99770.50;;;8.21;83.43
64189;BME280;50493;50.970;10.082;2023-02-19T11:20:22;99766.81;;;8.58;83.09
64189;BME280;50493;50.970;10.082;2023-02-19T11:22:48;99778.03;;;8.68;76.87
64189;BME280;50493;50.970;10.082;2023-02-19T11:25:18;99784.97;;;8.67;76.55
64189;BME280;50493;50.970;10.082;2023-02-19T11:27:53;99792.03;;;8.56;77.20
64189;BME280;50493;50.970;10.082;2023-02-19T11:30:31;99790.97;;;8.80;77.60
64189;BME280;50493;50.970;10.082;2023-02-19T11:33:18;99785.81;;;8.72;74.77
64189;BME280;50493;50.970;10.082;2023-02-19T11:35:46;99782.31;;;8.75;76.73
64189;BME280;50493;50.970;10.082;2023-02-19T11:38:14;99781.53;;;8.65;79.11
64189;BME280;50493;50.970;10.082;2023-02-19T11:40:43;99790.28;;;8.55;78.45
64189;BME280;50493;50.970;10.082;2023-02-19T11:43:22;99791.16;;;8.52;78.65
64189;BME280;50493;50.970;10.082;2023-02-19T11:45:58;99795.47;;;8.58;80.23
64189;BME280;50493;50.970;10.082;2023-02-19T11:48:38;99797.19;;;8.59;79.00
64189;BME280;50493;50.970;10.082;2023-02-19T11:51:17;99792.19;;;8.28;78.45
64189;BME280;50493;50.970;10.082;2023-02-19T11:53:48;99791.34;;;8.27;80.43
64189;BME280;50493;50.970;10.082;2023-02-19T11:56:18;99790.34;;;8.45;77.30
64189;BME280;50493;50.970;10.082;2023-02-19T11:58:55;99795.53;;;8.49;79.44
64189;BME280;50493;50.970;10.082;2023-02-19T12:01:29;99804.34;;;8.23;79.33
64189;BME280;50493;50.970;10.082;2023-02-19T12:04:17;99795.66;;;8.27;78.51
64189;BME280;50493;50.970;10.082;2023-02-19T12:06:52;99797.38;;;8.31;78.90
64189;BME280;50493;50.970;10.082;2023-02-19T12:09:33;99802.38;;;8.62;81.10
64189;BME280;50493;50.970;10.082;2023-02-19T12:12:20;99808.56;;;8.52;77.40
64189;BME280;50493;50.970;10.082;2023-02-19T12:14:58;99814.34;;;8.88;80.03
64189;BME280;50493;50.970;10.082;2023-02-19T12:17:42;99810.41;;;8.29;78.60
64189;BME280;50493;50.970;10.082;2023-02-19T12:20:18;99814.59;;;8.54;83.57
64189;BME280;50493;50.970;10.082;2023-02-19T12:22:57;99805.88;;;8.59;81.40
64189;BME280;50493;50.970;10.082;2023-02-19T12:25:37;99813.47;;;8.93;77.34
64189;BME280;50493;50.970;10.082;2023-02-19T12:28:22;99816.00;;;9.03;77.37
64189;BME280;50493;50.970;10.082;2023-02-19T12:30:59;99812.69;;;8.80;76.86
64189;BME280;50493;50.970;10.082;2023-02-19T12:33:51;99807.38;;;8.96;77.41
64189;BME280;50493;50.970;10.082;2023-02-19T12:36:26;99812.59;;;8.91;76.76
64189;BME280;50493;50.970;10.082;2023-02-19T12:39:01;99810.84;;;8.98;76.78
64189;BME280;50493;50.970;10.082;2023-02-19T12:41:39;99811.00;;;8.73;78.54
64189;BME280;50493;50.970;10.082;2023-02-19T12:44:10;99814.56;;;8.60;77.86
64189;BME280;50493;50.970;10.082;2023-02-19T12:46:41;99807.72;;;8.46;75.58
64189;BME280;50493;50.970;10.082;2023-02-19T12:49:11;99811.19;;;8.45;78.18
64189;BME280;50493;50.970;10.082;2023-02-19T12:51:42;99803.38;;;8.44;79.31
64189;BME280;50493;50.970;10.082;2023-02-19T12:54:12;99812.97;;;8.36;79.53
64189;BME280;50493;50.970;10.082;2023-02-19T12:56:43;99806.53;;;8.91;81.56
64189;BME280;50493;50.970;10.082;2023-02-19T12:59:13;99817.78;;;8.99;78.02
64189;BME280;50493;50.970;10.082;2023-02-19T13:01:45;99831.66;;;9.04;80.56
64189;BME280;50493;50.970;10.082;2023-02-19T13:04:23;99824.75;;;8.97;77.99
64189;BME280;50493;50.970;10.082;2023-02-19T13:06:54;99827.34;;;9.02;78.66
64189;BME280;50493;50.970;10.082;2023-02-19T13:09:25;99832.47;;;9.09;74.49
64189;BME280;50493;50.970;10.082;2023-02-19T13:11:55;99828.50;;;8.56;76.12